Huvudsida
METAR-TAF:

METAR-TAF

Flygplatser :

Midtjyllands Lufthavn

Karup, Danmark

latitud: 56-18N, longitud: 009-07E, höjd: 52 m

Aktuellt väderrapport

Denna rapport gjordes för 13 minuter sedan, klockan 19:20 UTC
Vind 5 kt från nordväst, varierande mellan väst och nord
Temperatur 16°C
Fuktighet 77%
Tryck 1020 hPa
Sikt 10 km eller mer

METAR: EKKA 251920Z AUTO 32005KT 270V350 9999NDV NCD 16/12 Q1020

Tid: 21:33 (19:33 UTC)

Väderprognos

Denna rapport gjordes för 2 timmar och 12 minuter sedan, klockan 17:21 UTC
Prognos gäller från 25 kl. 18 UTC till 26 kl. 18 UTC
Vind 6 kt från väst
Sikt 10 km eller mer
Få moln på en höjd av 3500 ft
Blir
från 25 kl. 20 UTC till 25 kl. 23 UTC
Vind 4 kt varierande vindriktning
Sannolikhet 40%
från 26 kl. 02 UTC till 26 kl. 05 UTC
Sikt: 1800 m
dimbankar

TAF: EKKA 251721Z 2518/2618 28006KT 9999 FEW035 BECMG 2520/2523 VRB04KT PROB40 2602/2605 1800 BCFG

Aktuella väderrapporter och prognoser från 4000 flygplatser (METAR- och TAF-rapporter).

De tillgängliga stationerna syns som gula och röda prickar på kartan.

För musen över prickarna för att se namnen på stationerna.

Klicka sedan för att få väderrapporter och prognoser.

För att ändra kartan: Klicka på de gröna knapparna med ett svart kors på för att zooma in; den gröna knappen med ett streck på för att zooma ut; eller på de gröna pilarna för angränsande kartor.


METAR-TAF: